Station LMFS1 - Lake Murray SC Image indicating link to RSS feed of recent meteorological observations for station LMFS1


Conditions at LMFS1 as of
(3:20 am EDT)
0720 GMT on 07/18/2024:
     

Click on the graph icon in the table below to see a time series plot of the last five days of that observation.

5-day plot - Wind Direction Wind Direction (WDIR):WSW ( 250 deg true )
5-day plot - Wind Speed Wind Speed (WSPD): 10 kts
5-day plot - Wind Gust Wind Gust (GST): 14 kts
5-day plot - Air Temperature Air Temperature (ATMP): 77.5 °F
5-day plot - Wind Speed at 10 Meters Wind Speed at 10 meters (WSPD10M): 10 kts
5-day plot - Wind Speed at 20 Meters Wind Speed at 20 meters (WSPD20M): 12 kts
5-day plot -  Wind Speed, Wind Gust and Atmospheric Pressure Combined plot of Wind Speed, Gust, and Air Pressure
Previous observations
TIME
(EDT)
5-day plot - Wind Direction
WDIR
 
5-day plot - Wind Speed
WSPD
kts
5-day plot - Wind Gust
GST
kts
5-day plot - Wave Height
WVHT
ft
5-day plot - Dominant Wave Period
DPD
sec
5-day plot - Average Wave Period
APD
sec
5-day plot - Mean Wave Direction
MWD
 
5-day plot - Atmospheric Pressure
PRES
in
5-day plot - Pressure Tendency
PTDY
in
5-day plot - Air Temperature
ATMP
°F
5-day plot - Water Temperature
WTMP
°F
5-day plot - Dew Point
DEWP
°F
5-day plot - Salinity
SAL
psu
5-day plot - Visibility
VIS
nmi
5-day plot - Tide (above MLLW)
TIDE
ft
2024-07-18 03:10 amWSW 10 12------ 77.4-----
2024-07-18 03:00 amWSW 10 15------ 77.4-----
2024-07-18 02:50 amWSW 10 15------ 77.5-----
2024-07-18 02:40 amWSW 8 13------ 77.4-----
2024-07-18 02:30 am SW 7 11------ 77.4-----
2024-07-18 02:20 amWSW 9 12------ 77.4-----
2024-07-18 02:10 am SW 9 12------ 77.7-----
2024-07-18 02:00 am SW 8 12------ 77.5-----
2024-07-18 01:50 amWSW 8 13------ 77.9-----
2024-07-18 01:40 am SW 10 15------ 78.1-----
2024-07-18 01:30 am SW 12 15------ 78.4-----
2024-07-18 01:20 am SW 13 16------ 78.8-----
2024-07-18 01:10 amSSW 12 15------ 79.2-----
2024-07-18 01:00 am SW 11 16------ 79.5-----
2024-07-18 12:50 am SW 13 16------ 79.7-----
2024-07-18 12:40 am SW 9 12------ 80.1-----
2024-07-18 12:30 am SW 10 11------ 80.2-----
2024-07-18 12:20 amWSW 8 11------ 80.2-----
2024-07-18 12:10 am SW 8 10------ 80.2-----
2024-07-18 12:00 am SW 8 11------ 80.2-----
2024-07-17 11:50 pm SW 9 12------ 80.6-----
2024-07-17 11:40 pm SW 10 12------ 81.1-----
2024-07-17 11:30 pmWSW 9 13------ 81.0-----
2024-07-17 11:20 pmWSW 9 13------ 81.3-----
2024-07-17 11:10 pmWSW 12 16------ 81.7-----
2024-07-17 11:00 pmWSW 10 16------ 81.9-----
2024-07-17 10:50 pmWSW 13 19------ 81.9-----
2024-07-17 10:40 pm W 14 19------ 82.6-----
2024-07-17 10:30 pmWSW 11 15------ 82.9-----
2024-07-17 10:20 pmWSW 10 14------ 82.8-----
2024-07-17 10:10 pmWSW 10 14------ 82.6-----
2024-07-17 10:00 pmWSW 7 15------ 82.6-----
2024-07-17 09:50 pmWSW 12 14------ 82.8-----
2024-07-17 09:40 pm W 10 13------ 82.9-----
2024-07-17 09:30 pmWSW 10 17------ 82.9-----
2024-07-17 09:20 pm SW 13 17------ 82.9-----
2024-07-17 09:10 pmWSW 10 13------ 83.1-----
2024-07-17 09:00 pmWSW 8 11------ 82.9-----
2024-07-17 08:50 pmWSW 8 13------ 82.8-----
2024-07-17 08:40 pm SW 11 13------ 82.8-----
2024-07-17 08:30 pm SW 8 13------ 82.6-----
2024-07-17 08:20 pmSSW 9 13------ 82.6-----
2024-07-17 08:10 pmSSW 11 12------ 82.6-----
2024-07-17 08:00 pmSSW 8 12------ 83.1-----
2024-07-17 07:50 pmSSW 9 15------ 83.3-----
2024-07-17 07:40 pmSSW 12 13------ 84.4-----
2024-07-17 07:30 pm SW 6 7------ 84.7-----
2024-07-17 07:20 pm S 5 6------ 84.0-----
2024-07-17 07:10 pm- 0 3------ 83.5-----
2024-07-17 07:00 pm W 2 8------ 83.5-----
2024-07-17 06:50 pm W 7 10------ 83.7-----
2024-07-17 06:40 pmWSW 7 9------ 84.0-----
2024-07-17 06:30 pm W 7 12------ 84.0-----
2024-07-17 06:20 pm W 10 19------ 84.6-----
2024-07-17 06:10 pm W 15 21------ 84.9-----
2024-07-17 06:00 pmWSW 14 18------ 85.3-----
2024-07-17 05:50 pmWSW 11 17------ 86.2-----
2024-07-17 05:40 pm W 13 19------ 86.7-----
2024-07-17 05:30 pm W 15 18------ 87.4-----
2024-07-17 05:20 pm W 16 20------ 88.2-----
2024-07-17 05:10 pmWSW 9 18------ 90.1-----
2024-07-17 05:00 pmWSW 13 22------ 90.1-----
2024-07-17 04:50 pm W 16 18------ 91.6-----
2024-07-17 04:40 pm SW 10 14------ 92.1-----
2024-07-17 04:30 pmWSW 9 11------ 92.7-----
2024-07-17 04:20 pmWSW 9 13------ 92.1-----
2024-07-17 04:10 pm SW 8 10------ 91.9-----
2024-07-17 04:00 pm SW 7 11------ 91.6-----
2024-07-17 03:50 pmWSW 8 11------ 91.8-----
2024-07-17 03:40 pmSSW 7 8------ 92.1-----
2024-07-17 03:30 pm S 7 9------ 92.5-----
2024-07-17 03:20 pmSSW 6 10------ 92.1-----
2024-07-17 03:10 pmSSW 6 9------ 91.6-----
2024-07-17 03:00 pm S 8 9------ 91.0-----
2024-07-17 02:50 pmSSW 8 10------ 91.0-----
2024-07-17 02:40 pm S 9 11------ 90.7-----
2024-07-17 02:30 pm SW 8 12------ 90.7-----
2024-07-17 02:20 pm SW 9 14------ 90.1-----
2024-07-17 02:10 pm SW 9 14------ 90.0-----
2024-07-17 02:00 pm SW 10 12------ 90.0-----
2024-07-17 01:50 pm SW 11 14------ 89.4-----
2024-07-17 01:40 pm SW 9 14------ 89.2-----
2024-07-17 01:30 pm SW 10 13------ 88.9-----
2024-07-17 01:20 pm SW 8 18------ 89.2-----
2024-07-17 01:10 pm W 11 16------ 89.2-----
2024-07-17 01:00 pm W 13 15------ 88.9-----
2024-07-17 12:50 pm W 10 15------ 88.3-----
2024-07-17 12:40 pm W 14 17------ 88.2-----
2024-07-17 12:30 pm W 13 21------ 88.2-----
2024-07-17 12:20 pm W 13 17------ 88.2-----
2024-07-17 12:10 pm W 10 14------ 87.8-----
2024-07-17 12:00 pmWSW 11 14------ 87.3-----
2024-07-17 11:50 am W 9 12------ 87.3-----
2024-07-17 11:40 am W 10 14------ 87.1-----
2024-07-17 11:30 amWSW 7 12------ 86.5-----
2024-07-17 11:20 amWSW 8 14------ 86.2-----
2024-07-17 11:10 amWSW 10 14------ 85.3-----
2024-07-17 11:00 am SW 12 14------ 84.7-----
2024-07-17 10:50 am SW 9 13------ 84.7-----
2024-07-17 10:40 am SW 9 11------ 84.4-----
2024-07-17 10:30 amWSW 9 14------ 84.4-----
2024-07-17 10:20 amWSW 8 12------ 83.7-----
2024-07-17 10:10 am SW 10 13------ 83.1-----
2024-07-17 10:00 am SW 10 12------ 82.6-----
2024-07-17 09:50 am SW 9 14------ 82.0-----
2024-07-17 09:40 am SW 8 10------ 81.9-----
2024-07-17 09:30 am SW 7 9------ 82.0-----
2024-07-17 09:20 am SW 8 10------ 81.7-----
2024-07-17 09:10 am W 5 8------ 81.5-----
2024-07-17 09:00 amWSW 7 12------ 80.8-----
2024-07-17 08:50 amWSW 8 11------ 80.4-----
2024-07-17 08:40 amWSW 8 11------ 80.1-----
2024-07-17 08:30 am SW 8 11------ 79.9-----
2024-07-17 08:20 amWSW 6 8------ 80.1-----
2024-07-17 08:10 amWSW 7 10------ 79.5-----
2024-07-17 08:00 amWSW 7 10------ 79.3-----
2024-07-17 07:50 amWSW 6 9------ 79.3-----
2024-07-17 07:40 amWSW 8 11------ 78.8-----
2024-07-17 07:30 amWSW 7 10------ 79.0-----
2024-07-17 07:20 amWSW 9 11------ 78.4-----
2024-07-17 07:10 amWSW 8 11------ 78.4-----
2024-07-17 07:00 amWSW 7 12------ 78.6-----
2024-07-17 06:50 amWSW 8 12------ 78.3-----
2024-07-17 06:40 amWSW 8 11------ 78.6-----
2024-07-17 06:30 am W 10 14------ 78.8-----
2024-07-17 06:20 am W 9 15------ 78.4-----
2024-07-17 06:10 am W 10 12------ 78.8-----
2024-07-17 06:00 amWSW 9 13------ 78.4-----
2024-07-17 05:50 am W 10 15------ 78.6-----
2024-07-17 05:40 am W 11 14------ 79.0-----
2024-07-17 05:30 am W 10 15------ 79.0-----
2024-07-17 05:20 am W 11 14------ 79.0-----
2024-07-17 05:10 am W 11 13------ 79.0-----
2024-07-17 05:00 am W 10 15------ 79.2-----
2024-07-17 04:50 amWSW 8 12------ 79.2-----
2024-07-17 04:40 amWSW 9 16------ 79.2-----
2024-07-17 04:30 am SW 11 15------ 79.2-----
2024-07-17 04:20 am SW 10 15------ 79.5-----
2024-07-17 04:10 am SW 10 15------ 79.9-----
2024-07-17 04:00 am SW 11 15------ 79.9-----
2024-07-17 03:50 amWSW 10 17------ 80.4-----